Terminal Aerodrome Forecast
Issued by NWS

Current Version | Previous Version | Text Only | Print | Product List | Glossary Off
Versions: 1 2 3 4 5 6 7 8 9 10 11 12 13 14 15 16 17 18 19 20 21 22 23 24 25 26

739
FTUS41 KRLX 222337
TAFCKB
TAF
KCKB 222337Z 2300/2324 07008KT P6SM -RA BKN060
     FM230400 05007KT 6SM -RA OVC030
     FM231100 08012G19KT 5SM -RA OVC015
     FM231500 06012G20KT 2SM -RA OVC008
     FM231900 06010KT 3SM -RA OVC015
     FM232300 05008G16KT 6SM -RA OVC020=

USA.gov is the U.S. government's official web portal to all federal, state and local government web resources and services.